< < Back
Terminal Aerodrome Forecast


Current Version              Previous Versions:   1  2  3  4  5  6  7  8  9  

Terminal Aerodrome Forecast

213
FTUS42 KJAX 242300
TAFSSI
TAF
KSSI 242329Z 2500/2524 00000KT P6SM FEW200
     FM251300 35006KT P6SM SKC
     FM251800 02009KT P6SM SKC=

Latest METAR

015
SAUS70 KWBC 250800 RRM
MTRSSI
METAR KSSI 250753Z AUTO 00000KT 10SM CLR 11/10 A2998 RMK AO2 SLP153
T01110100


USA.gov is the U.S. government's official web portal to all federal, state and local government web resources and services.